Time;durP1;ratioP1;P1;durP2;ratioP2;P2;SDS_P1;SDS_P2;PMS_P1;PMS_P2;Temp;Humidity;BMP_temperature;BMP_pressure;BME280_temperature;BME280_humidity;BME280_pressure;Samples;Min_cycle;Max_cycle;Signal;HPM_P1;HPM_P2
2021/08/15 00:00:09;;;;;;;12.87;11.67;;;19.10;74.40;;;18.33;73.97;98070.06;4919642;29;20455;-80
2021/08/15 00:02:36;;;;;;;12.20;11.10;;;19.10;74.80;;;18.29;74.13;98067.06;4920425;29;20495;-80
2021/08/15 00:05:05;;;;;;;16.23;14.80;;;19.00;75.20;;;18.18;74.22;98065.34;4918992;29;20936;-80
2021/08/15 00:07:33;;;;;;;11.77;10.70;;;19.00;75.90;;;18.01;74.25;98035.41;4918257;29;20472;-80
2021/08/15 00:10:00;;;;;;;13.00;11.33;;;19.00;76.30;;;18.38;74.07;98073.66;4916903;29;20514;-81
2021/08/15 00:12:27;;;;;;;11.30;10.30;;;19.00;76.80;;;18.32;74.11;98071.16;4910707;29;20455;-80
2021/08/15 00:14:54;;;;;;;12.77;11.53;;;19.00;76.50;;;18.20;73.86;98055.81;4920961;29;20503;-80
2021/08/15 00:17:21;;;;;;;11.50;10.60;;;19.00;76.50;;;18.16;74.08;98060.13;4918784;29;20986;-80
2021/08/15 00:19:48;;;;;;;11.40;10.30;;;18.90;76.40;;;18.12;74.42;98064.50;4919156;29;20464;-81
2021/08/15 00:22:15;;;;;;;11.70;10.50;;;18.90;76.80;;;18.06;74.31;98060.09;4924775;29;20469;-81
2021/08/15 00:24:43;;;;;;;13.13;11.20;;;18.80;77.00;;;18.06;74.28;98051.91;4917338;29;20461;-80
2021/08/15 00:27:10;;;;;;;13.73;11.40;;;18.80;77.40;;;18.03;74.64;98058.69;4913474;29;20448;-80
2021/08/15 00:29:37;;;;;;;12.50;11.50;;;18.70;77.40;;;17.99;75.03;98057.56;4919638;29;20464;-80
2021/08/15 00:32:06;;;;;;;12.23;11.13;;;18.70;78.10;;;17.87;74.95;98040.53;4910124;29;20827;-80
2021/08/15 00:34:34;;;;;;;12.80;11.60;;;18.70;78.20;;;17.80;75.20;98024.34;4903615;29;20503;-81
2021/08/15 00:37:01;;;;;;;11.87;10.60;;;18.60;78.60;;;17.89;75.44;98043.81;4919785;29;20450;-80
2021/08/15 00:39:27;;;;;;;12.93;11.50;;;18.60;78.90;;;17.81;75.80;98045.94;4919008;29;20984;-81
2021/08/15 00:41:56;;;;;;;12.90;11.67;;;18.50;79.30;;;17.64;76.02;98026.13;4918870;29;20459;-80
2021/08/15 00:44:23;;;;;;;12.60;11.50;;;18.60;80.00;;;17.74;76.17;98045.34;4917991;29;20449;-81
2021/08/15 00:46:50;;;;;;;11.87;10.80;;;18.50;80.40;;;17.62;76.46;98022.84;4918374;29;20467;-82
2021/08/15 00:49:17;;;;;;;13.70;12.27;;;18.50;81.00;;;17.62;76.70;98029.16;4916539;29;20455;-80
2021/08/15 00:51:44;;;;;;;12.20;11.00;;;18.40;81.40;;;17.56;76.83;98025.56;4918383;29;20988;-80
2021/08/15 00:54:11;;;;;;;13.47;12.07;;;18.40;81.80;;;17.63;77.24;98040.88;4917366;29;20472;-80
2021/08/15 00:56:38;;;;;;;11.97;10.77;;;18.40;82.20;;;17.65;77.23;98042.28;4924523;29;20452;-81
2021/08/15 00:59:07;;;;;;;13.73;11.80;;;18.40;82.70;;;17.59;77.58;98034.31;4921222;29;20456;-81
2021/08/15 01:01:35;;;;;;;14.77;12.70;;;18.40;83.10;;;17.53;77.78;98036.16;4901981;29;21099;-81
2021/08/15 01:04:04;;;;;;;12.87;11.67;;;18.30;83.30;;;17.47;77.41;98021.63;4918371;29;20456;-81
2021/08/15 01:06:33;;;;;;;13.13;11.77;;;18.20;83.60;;;17.52;77.49;98029.91;4915861;29;20456;-83
2021/08/15 01:09:02;;;;;;;12.70;11.57;;;18.30;83.90;;;17.37;77.71;98008.72;4916435;29;20472;-81
2021/08/15 01:11:32;;;;;;;12.83;11.53;;;18.20;84.00;;;17.44;77.89;98015.88;4912146;29;20456;-81
2021/08/15 01:14:01;;;;;;;12.07;10.87;;;18.20;84.30;;;17.40;78.03;98030.06;4897857;29;20522;-80
2021/08/15 01:16:30;;;;;;;13.57;12.37;;;18.20;84.60;;;17.34;78.11;98024.81;4922742;29;20476;-81
2021/08/15 01:18:57;;;;;;;12.77;11.63;;;18.10;84.90;;;17.31;78.65;98022.59;4922780;29;20458;-81
2021/08/15 01:21:24;;;;;;;13.30;12.03;;;18.10;85.40;;;17.27;78.53;98028.59;4917429;29;20465;-82
2021/08/15 01:23:51;;;;;;;12.07;10.90;;;18.00;85.50;;;17.24;78.42;98026.38;4919637;29;20452;-81
2021/08/15 01:26:21;;;;;;;12.30;11.17;;;18.00;85.80;;;17.24;78.73;98029.09;4918631;29;20556;-81
2021/08/15 01:28:51;;;;;;;12.70;11.40;;;18.00;86.00;;;17.18;79.11;98018.41;4920577;29;20968;-81
2021/08/15 01:31:20;;;;;;;13.00;11.83;;;18.00;86.50;;;17.18;79.32;98024.66;4922011;29;20452;-81
2021/08/15 01:33:47;;;;;;;13.47;12.17;;;17.90;87.10;;;17.07;79.54;98012.03;4924232;29;20490;-82
2021/08/15 01:36:16;;;;;;;16.47;11.50;;;17.90;87.70;;;17.14;79.50;98026.28;4929368;29;20535;-80
2021/08/15 01:38:45;;;;;;;13.77;12.40;;;17.90;87.80;;;17.22;79.59;98024.97;4917911;29;20464;-80
2021/08/15 01:41:12;;;;;;;13.10;11.90;;;17.90;88.10;;;17.16;79.52;98021.38;4923435;29;20555;-80
2021/08/15 01:43:54;;;;;;;15.93;13.13;;;17.90;88.10;;;17.16;79.76;98026.81;4918825;29;21072;-81
2021/08/15 01:46:23;;;;;;;14.37;12.87;;;17.90;88.60;;;17.05;79.85;98014.16;4919866;29;20456;-80
2021/08/15 01:48:51;;;;;;;14.00;12.13;;;17.80;88.70;;;17.07;80.00;98017.47;4918796;29;21314;-80
2021/08/15 01:51:19;;;;;;;13.97;12.60;;;17.80;88.90;;;17.08;79.79;98019.13;4909878;29;20452;-80
2021/08/15 01:53:49;;;;;;;14.20;11.83;;;17.80;89.00;;;17.03;80.11;98022.63;4910229;29;20457;-79
2021/08/15 01:56:16;;;;;;;13.27;11.97;;;17.80;89.20;;;16.87;80.29;97998.97;4904312;29;20462;-79
2021/08/15 01:58:43;;;;;;;13.80;12.40;;;17.70;89.40;;;16.86;80.38;98011.75;4908615;29;20456;-79
2021/08/15 02:01:15;;;;;;;14.07;12.63;;;17.70;89.60;;;16.87;80.72;98013.41;4912115;29;20464;-79
2021/08/15 02:03:43;;;;;;;14.00;12.70;;;17.70;90.10;;;16.80;80.84;98007.34;4914974;29;20534;-80
2021/08/15 02:06:10;;;;;;;14.30;13.00;;;17.60;90.20;;;16.67;80.96;97987.56;4915939;29;20444;-79
2021/08/15 02:08:37;;;;;;;18.10;13.77;;;17.70;90.40;;;16.80;81.15;98012.81;4914784;29;20802;-79
2021/08/15 02:11:04;;;;;;;14.43;13.23;;;17.60;90.40;;;16.79;81.24;98011.16;4925039;29;20464;-80
2021/08/15 02:13:31;;;;;;;14.67;13.17;;;17.50;90.80;;;16.71;81.97;98015.97;4921831;29;20466;-81
2021/08/15 02:15:58;;;;;;;13.57;12.20;;;17.50;91.00;;;16.64;81.46;98009.91;4932816;29;21569;-80
2021/08/15 02:18:27;;;;;;;14.70;13.50;;;17.40;91.20;;;16.63;82.44;98011.00;4910152;29;20877;-80
2021/08/15 02:20:55;;;;;;;14.97;13.67;;;17.40;91.60;;;16.56;82.53;98002.16;4916468;29;20463;-80
2021/08/15 02:23:21;;;;;;;14.20;12.80;;;17.40;91.90;;;16.69;82.24;98009.94;4919449;29;20448;-79
2021/08/15 02:25:49;;;;;;;14.40;13.00;;;17.40;92.20;;;16.53;82.69;97983.59;4924385;29;20538;-80
2021/08/15 02:28:16;;;;;;;15.80;14.33;;;17.40;92.10;;;16.58;82.68;98005.44;4923583;29;20452;-79
2021/08/15 02:30:43;;;;;;;15.37;13.97;;;17.30;92.30;;;16.58;82.90;98002.72;4925614;29;20614;-80
2021/08/15 02:33:10;;;;;;;15.00;13.80;;;17.30;92.50;;;16.63;82.39;97997.34;4923487;29;20463;-80
2021/08/15 02:35:38;;;;;;;14.23;12.90;;;17.40;92.50;;;16.63;82.77;97994.63;4924942;29;20544;-80
2021/08/15 02:38:05;;;;;;;14.53;13.13;;;17.40;92.50;;;16.56;82.61;97996.72;4920568;29;20462;-80
2021/08/15 02:40:32;;;;;;;16.30;12.07;;;17.30;92.50;;;16.52;83.13;97996.38;4904129;29;20463;-80
2021/08/15 02:42:59;;;;;;;14.80;12.80;;;17.30;92.80;;;16.39;83.13;97986.69;4916198;29;20496;-81
2021/08/15 02:45:27;;;;;;;15.67;14.17;;;17.30;93.00;;;16.25;83.14;97982.72;4914934;29;20456;-80
2021/08/15 02:47:55;;;;;;;14.67;13.17;;;17.20;92.80;;;16.17;83.12;97988.63;4918426;29;20467;-79
2021/08/15 02:50:23;;;;;;;13.60;12.20;;;17.10;92.90;;;16.18;83.59;97996.53;4922862;29;20552;-80
2021/08/15 02:52:51;;;;;;;15.67;14.00;;;17.00;93.30;;;16.07;83.64;97990.13;4925083;29;20463;-81
2021/08/15 02:55:18;;;;;;;14.27;12.70;;;16.90;93.40;;;16.01;84.31;97996.59;4918560;29;20895;-80
2021/08/15 02:57:45;;;;;;;15.07;13.63;;;16.80;93.80;;;15.98;84.04;97997.91;4918559;29;20991;-82
2021/08/15 03:00:14;;;;;;;15.63;14.13;;;16.80;94.40;;;15.95;84.69;97992.97;4913748;29;20447;-80
2021/08/15 03:02:41;;;;;;;16.40;14.80;;;16.70;94.70;;;15.66;83.98;97929.59;4916198;29;20543;-81
2021/08/15 03:05:10;;;;;;;14.90;13.53;;;16.80;94.70;;;16.10;83.78;98002.44;4919289;29;20474;-80
2021/08/15 03:07:38;;;;;;;14.87;13.37;;;16.90;94.20;;;16.06;83.99;98006.72;4923107;29;20467;-80
2021/08/15 03:10:08;;;;;;;14.60;13.30;;;16.80;94.20;;;16.05;84.34;97999.63;4920272;29;20465;-80
2021/08/15 03:12:36;;;;;;;16.83;15.23;;;16.80;94.20;;;16.02;84.55;98003.69;4922360;29;20574;-80
2021/08/15 03:15:03;;;;;;;14.40;13.03;;;16.80;94.40;;;15.98;84.05;97975.28;4914138;29;20465;-80
2021/08/15 03:17:30;;;;;;;15.20;13.80;;;16.80;94.40;;;15.96;84.26;97988.31;4918353;29;21066;-81
2021/08/15 03:19:57;;;;;;;16.50;13.60;;;16.80;94.20;;;15.90;83.78;97989.34;4920168;29;20448;-80
2021/08/15 03:22:24;;;;;;;13.63;12.53;;;16.70;94.10;;;15.88;83.66;97986.00;4924406;29;20907;-81
2021/08/15 03:24:50;;;;;;;14.17;12.60;;;16.70;93.90;;;15.76;84.38;97981.50;4917831;29;20542;-80
2021/08/15 03:27:19;;;;;;;14.73;13.23;;;16.60;94.10;;;15.75;84.17;97979.84;4919246;29;20972;-83
2021/08/15 03:29:46;;;;;;;14.37;13.17;;;16.60;94.10;;;15.74;84.44;97983.63;4909797;29;20570;-83
2021/08/15 03:32:13;;;;;;;14.57;13.20;;;16.50;94.40;;;15.70;84.62;97986.03;4912924;29;20927;-81
2021/08/15 03:34:40;;;;;;;19.93;13.90;;;16.50;94.60;;;15.66;84.34;97981.31;4915438;29;20568;-80
2021/08/15 03:37:07;;;;;;;14.40;12.93;;;16.50;94.90;;;15.61;84.52;97981.25;4918765;29;20475;-80
2021/08/15 03:39:33;;;;;;;14.10;12.90;;;16.40;94.70;;;15.55;85.08;97988.53;4919231;29;20460;-80
2021/08/15 03:42:03;;;;;;;14.10;12.73;;;16.40;94.80;;;15.50;85.04;97986.53;4911991;29;20539;-80
2021/08/15 03:44:33;;;;;;;15.03;13.53;;;16.30;95.30;;;15.50;84.82;97981.09;4920160;29;20491;-80
2021/08/15 03:47:00;;;;;;;15.23;13.63;;;16.30;95.00;;;15.43;85.07;97985.91;4913536;29;20834;-82
2021/08/15 03:49:28;;;;;;;14.70;13.20;;;16.30;95.00;;;15.39;84.98;97982.84;4913061;29;20520;-80
2021/08/15 03:51:55;;;;;;;13.50;12.40;;;16.20;95.20;;;15.25;84.72;97957.88;4919538;29;20444;-80
2021/08/15 03:54:24;;;;;;;13.40;11.90;;;16.20;95.00;;;15.38;85.24;97989.34;4922705;29;20778;-81
2021/08/15 03:56:51;;;;;;;13.97;12.67;;;16.20;95.20;;;15.36;84.73;97983.34;4919209;29;20470;-80
2021/08/15 03:59:19;;;;;;;14.27;12.80;;;16.20;95.10;;;15.33;85.17;97981.13;4915606;29;20449;-80
2021/08/15 04:01:47;;;;;;;13.60;12.30;;;16.20;95.00;;;15.24;85.12;97968.97;4916335;29;20480;-80
2021/08/15 04:04:14;;;;;;;13.83;12.33;;;16.10;95.30;;;15.33;84.86;97980.28;4919760;29;20547;-80
2021/08/15 04:06:42;;;;;;;12.87;11.63;;;16.10;95.10;;;15.24;84.75;97971.69;4917715;29;20543;-81
2021/08/15 04:09:09;;;;;;;13.87;12.77;;;16.20;95.00;;;15.29;85.25;97980.78;4913478;29;20471;-81
2021/08/15 04:11:36;;;;;;;13.80;12.50;;;16.10;95.10;;;15.29;85.08;97980.78;4928556;29;20471;-81
2021/08/15 04:14:03;;;;;;;13.20;11.70;;;16.10;95.20;;;14.99;85.29;97926.66;4920009;29;20487;-81
2021/08/15 04:16:30;;;;;;;14.20;13.00;;;16.10;95.60;;;15.34;84.70;97976.47;4913277;29;20468;-82
2021/08/15 04:18:58;;;;;;;14.13;12.70;;;16.10;95.20;;;15.27;84.97;97965.75;4914947;29;20464;-81
2021/08/15 04:21:25;;;;;;;12.70;11.57;;;16.20;95.20;;;15.48;84.21;97971.53;4917555;29;20893;-81
2021/08/15 04:23:52;;;;;;;13.77;12.47;;;16.30;94.90;;;15.64;83.47;97975.31;4911714;29;20448;-81
2021/08/15 04:26:19;;;;;;;12.17;11.17;;;16.40;94.30;;;15.79;82.57;97969.28;4930671;29;20448;-81
2021/08/15 04:28:46;;;;;;;12.60;11.37;;;16.50;93.60;;;15.91;82.10;97975.44;4920921;29;20820;-81
2021/08/15 04:31:13;;;;;;;12.43;11.33;;;16.70;92.90;;;16.17;81.11;97967.63;4921719;29;20476;-81
2021/08/15 04:33:41;;;;;;;10.93;10.03;;;17.20;91.00;;;16.65;78.88;97967.91;4919824;29;20529;-81
2021/08/15 04:36:09;;;;;;;10.87;9.87;;;17.90;86.50;;;16.91;77.65;97965.44;4920412;29;20491;-80
2021/08/15 04:38:36;;;;;;;11.23;10.03;;;18.60;82.60;;;17.33;75.75;97969.38;4926143;29;21048;-80
2021/08/15 04:41:04;;;;;;;12.23;11.10;;;19.30;78.20;;;17.60;74.09;97962.19;4920515;29;20949;-79
2021/08/15 04:43:32;;;;;;;11.17;10.20;;;19.80;74.70;;;17.82;73.56;97962.91;4914316;29;20454;-79
2021/08/15 04:46:00;;;;;;;11.10;10.17;;;20.20;72.30;;;18.04;72.41;97967.41;4922347;29;20455;-80
2021/08/15 04:48:27;;;;;;;10.77;9.77;;;20.50;70.60;;;18.20;71.01;97937.41;4918491;29;20968;-79
2021/08/15 04:50:53;;;;;;;12.67;9.80;;;20.60;69.30;;;18.18;71.11;97945.06;4924292;29;20444;-81
2021/08/15 04:53:22;;;;;;;11.10;10.00;;;20.50;69.40;;;18.38;71.04;97956.06;4924358;29;20468;-80
2021/08/15 04:55:49;;;;;;;11.20;10.30;;;20.80;68.70;;;18.67;69.85;97961.06;4920629;29;20496;-80
2021/08/15 04:58:16;;;;;;;11.50;10.50;;;21.10;67.60;;;18.79;69.38;97957.28;4919487;29;20500;-80
2021/08/15 05:00:43;;;;;;;10.77;9.77;;;21.30;66.50;;;18.89;69.01;97968.25;4917605;29;20455;-80
2021/08/15 05:03:11;;;;;;;11.07;10.10;;;21.50;66.50;;;18.84;68.88;97943.59;4911374;29;20474;-80
2021/08/15 05:05:39;;;;;;;11.00;9.67;;;21.70;65.70;;;19.00;69.07;97974.59;4916364;29;20568;-82
2021/08/15 05:08:07;;;;;;;10.70;9.80;;;21.90;64.90;;;19.05;68.80;97954.59;4923080;29;20455;-82
2021/08/15 05:10:36;;;;;;;11.40;10.40;;;22.20;64.20;;;19.13;68.40;97959.53;4920157;29;20456;-81
2021/08/15 05:13:04;;;;;;;11.00;10.10;;;22.40;63.50;;;19.40;67.13;97958.44;4923246;29;20451;-80
2021/08/15 05:15:31;;;;;;;11.40;10.30;;;22.60;62.90;;;19.84;66.33;97972.63;4915239;29;20482;-80
2021/08/15 05:17:58;;;;;;;11.90;10.77;;;22.90;62.50;;;20.24;64.98;97973.63;4918979;29;20448;-80
2021/08/15 05:20:25;;;;;;;10.83;9.93;;;23.10;62.10;;;20.07;65.58;97980.25;4913972;29;20559;-81
2021/08/15 05:22:52;;;;;;;13.03;12.00;;;23.20;62.00;;;20.93;62.30;97968.38;4918884;29;20468;-80
2021/08/15 05:25:19;;;;;;;11.17;10.07;;;23.10;62.00;;;20.29;64.52;97964.56;4914694;29;20463;-80
2021/08/15 05:27:47;;;;;;;12.33;11.23;;;22.90;62.30;;;19.96;65.17;97956.75;4921751;29;20547;-81
2021/08/15 05:30:14;;;;;;;11.60;10.50;;;22.90;61.80;;;20.28;64.58;97974.72;4916440;29;20473;-80
2021/08/15 05:32:42;;;;;;;12.30;11.00;;;23.00;61.60;;;19.99;64.99;97945.22;4920803;29;20491;-80
2021/08/15 05:35:10;;;;;;;12.17;11.10;;;22.90;61.80;;;20.14;64.90;97976.41;4916555;29;20488;-82
2021/08/15 05:37:40;;;;;;;11.90;10.83;;;22.80;61.50;;;20.15;64.80;97972.56;4912953;29;20460;-81
2021/08/15 05:40:09;;;;;;;12.63;11.47;;;22.80;61.60;;;20.44;64.45;97977.41;4903986;29;20458;-81
2021/08/15 05:42:36;;;;;;;12.20;10.90;;;22.70;62.00;;;20.28;64.87;97969.25;4918845;29;20803;-80
2021/08/15 05:45:06;;;;;;;12.37;11.03;;;22.60;62.20;;;20.12;65.01;97960.22;4919617;29;20542;-81
2021/08/15 05:47:33;;;;;;;13.17;11.97;;;22.50;62.40;;;20.54;63.89;97971.84;4919004;29;20820;-81
2021/08/15 05:50:00;;;;;;;13.90;12.57;;;22.50;62.40;;;20.46;64.14;97958.72;4919942;29;20487;-85
2021/08/15 05:52:27;;;;;;;16.83;12.27;;;22.50;62.50;;;20.64;63.78;97955.34;4925452;29;22335;-84
2021/08/15 05:54:55;;;;;;;11.93;10.97;;;22.40;62.90;;;20.47;64.73;97976.84;4911269;29;20487;-84
2021/08/15 05:57:22;;;;;;;15.33;12.90;;;22.40;63.10;;;20.70;64.58;97969.84;4923150;29;20474;-86
2021/08/15 05:59:49;;;;;;;14.77;11.20;;;22.40;63.30;;;20.37;65.31;97967.53;4926421;29;20570;-84
2021/08/15 06:02:18;;;;;;;13.90;12.80;;;22.30;63.50;;;20.23;65.46;97961.84;4921090;29;20479;-87
2021/08/15 06:04:45;;;;;;;15.10;13.70;;;21.60;64.30;;;20.17;66.27;97971.22;4923956;29;20579;-84
2021/08/15 06:07:13;;;;;;;19.33;15.30;;;21.30;65.50;;;19.99;67.06;97975.38;4922800;29;20869;-86
2021/08/15 06:09:40;;;;;;;15.30;13.90;;;21.00;66.80;;;19.38;68.49;97941.47;4924839;29;20463;-84
2021/08/15 06:12:08;;;;;;;14.40;13.30;;;20.60;67.80;;;19.42;68.60;97948.03;4923803;29;20452;-85
2021/08/15 06:14:35;;;;;;;15.23;13.80;;;20.30;69.00;;;19.64;68.58;97977.88;4923304;29;20814;-84
2021/08/15 06:17:03;;;;;;;15.37;13.87;;;20.30;69.50;;;19.69;69.01;97974.31;4914628;29;20541;-87
2021/08/15 06:19:32;;;;;;;16.20;14.60;;;20.30;70.60;;;19.54;68.95;97959.53;4924124;29;20991;-83
2021/08/15 06:22:00;;;;;;;15.97;14.37;;;20.30;70.80;;;19.68;69.28;97965.25;4923861;29;20491;-83
2021/08/15 06:24:27;;;;;;;17.20;15.57;;;20.30;71.30;;;19.59;69.73;97958.69;4924326;29;21034;-85
2021/08/15 06:26:54;;;;;;;16.67;15.10;;;20.30;71.70;;;19.71;69.44;97961.13;4921702;29;20491;-85
2021/08/15 06:29:21;;;;;;;15.87;14.53;;;20.40;71.90;;;19.75;69.86;97959.47;4925287;29;20479;-85
2021/08/15 06:31:49;;;;;;;15.83;14.50;;;20.50;72.10;;;19.72;69.06;97935.38;4917486;29;20545;-84
2021/08/15 06:34:15;;;;;;;16.10;14.43;;;20.70;71.60;;;20.08;68.77;97970.94;4921364;29;20510;-83
2021/08/15 06:36:44;;;;;;;17.13;15.73;;;20.90;71.40;;;20.26;67.98;97965.97;4928002;29;20760;-83
2021/08/15 06:39:11;;;;;;;17.47;15.97;;;21.10;70.80;;;20.29;67.41;97962.66;4921692;29;20479;-86
2021/08/15 06:41:38;;;;;;;16.83;15.20;;;21.20;70.00;;;20.38;67.49;97963.69;4922623;29;20507;-85
2021/08/15 06:44:06;;;;;;;17.97;16.47;;;21.20;70.00;;;20.35;67.52;97950.53;4905159;29;20520;-87
2021/08/15 06:46:34;;;;;;;16.53;15.23;;;21.40;70.00;;;20.49;66.45;97936.22;4919995;29;20528;-84
2021/08/15 06:49:01;;;;;;;16.60;15.20;;;21.50;69.50;;;20.72;66.04;97933.91;4917158;29;20479;-84
2021/08/15 06:51:28;;;;;;;16.87;15.37;;;21.70;69.50;;;20.95;65.57;97966.16;4922345;29;20472;-83
2021/08/15 06:53:58;;;;;;;16.50;15.20;;;21.80;68.80;;;21.07;65.06;97946.56;4919482;29;20474;-85
2021/08/15 06:56:25;;;;;;;16.67;14.97;;;21.90;68.60;;;21.07;64.70;97938.31;4925326;29;20475;-85
2021/08/15 06:58:53;;;;;;;17.23;15.73;;;22.10;68.20;;;21.35;64.46;97954.34;4911955;29;20505;-85
2021/08/15 07:01:21;;;;;;;17.97;16.23;;;22.20;68.00;;;21.45;63.83;97961.66;4929890;29;20451;-84
2021/08/15 07:03:48;;;;;;;16.87;15.27;;;22.30;67.30;;;21.49;63.66;97947.06;4931428;29;20458;-85
2021/08/15 07:06:15;;;;;;;17.87;16.00;;;22.30;67.20;;;21.64;63.09;97964.50;4928444;29;20452;-83
2021/08/15 07:08:42;;;;;;;19.17;17.60;;;22.50;66.90;;;21.68;63.07;97965.59;4932942;29;20594;-82
2021/08/15 07:11:11;;;;;;;17.17;15.83;;;22.40;66.80;;;21.52;62.79;97951.97;4940279;29;20480;-85
2021/08/15 07:13:38;;;;;;;16.43;14.83;;;22.40;66.40;;;21.65;62.17;97949.66;4941195;29;20456;-85
2021/08/15 07:16:06;;;;;;;16.03;14.40;;;22.40;66.10;;;21.61;59.58;97924.69;4933394;29;20457;-84
2021/08/15 07:18:34;;;;;;;16.23;14.73;;;22.50;64.50;;;21.95;59.93;97947.72;4931755;29;20456;-84
2021/08/15 07:21:02;;;;;;;15.27;13.97;;;22.60;64.70;;;22.12;60.46;97962.94;4939082;29;20948;-84
2021/08/15 07:23:32;;;;;;;15.10;13.80;;;22.80;65.10;;;22.10;58.73;97965.97;4928754;29;20456;-86
2021/08/15 07:25:59;;;;;;;13.57;12.37;;;22.90;63.60;;;22.12;57.73;97938.19;4907638;29;20460;-85
2021/08/15 07:28:28;;;;;;;14.30;13.20;;;23.00;63.30;;;21.71;58.13;97888.03;4937388;29;20825;-84
2021/08/15 07:30:55;;;;;;;14.40;13.20;;;23.10;63.00;;;22.05;57.68;97941.28;4912036;29;20492;-85
2021/08/15 07:33:22;;;;;;;14.17;13.07;;;23.10;62.60;;;22.47;57.60;97963.59;4906834;29;20462;-84
2021/08/15 07:35:50;;;;;;;15.40;13.87;;;23.20;62.60;;;22.28;57.30;97889.28;4907061;29;20523;-86
2021/08/15 07:38:21;;;;;;;13.93;12.63;;;23.50;62.90;;;22.69;56.70;97941.03;4918316;29;21022;-84
2021/08/15 07:40:50;;;;;;;15.00;12.10;;;23.60;62.30;;;22.97;56.40;97940.34;4890780;29;20459;-85
2021/08/15 07:43:17;;;;;;;12.17;11.10;;;23.80;62.20;;;23.16;56.01;97941.16;4919376;29;20631;-87
2021/08/15 07:45:46;;;;;;;12.33;11.30;;;24.00;62.00;;;23.44;54.37;97957.00;4920662;29;20483;-86
2021/08/15 07:48:14;;;;;;;14.40;12.13;;;24.10;61.20;;;23.32;54.51;97957.47;4898923;29;20491;-85
2021/08/15 07:50:43;;;;;;;12.50;11.30;;;24.10;60.60;;;23.56;52.85;97953.75;4924903;29;20555;-84
2021/08/15 07:53:23;;;;;;;12.30;11.10;;;24.30;59.90;;;23.49;50.84;97959.66;4900586;29;20474;-86
2021/08/15 07:55:52;;;;;;;10.90;10.00;;;24.30;58.60;;;23.70;52.62;97954.59;4925932;29;20456;-86
2021/08/15 07:58:19;;;;;;;11.73;10.77;;;24.40;59.30;;;23.75;52.76;97950.94;4925239;29;21266;-85
2021/08/15 08:00:48;;;;;;;11.93;10.93;;;24.50;59.50;;;23.86;52.18;97952.38;4924678;29;20484;-86
2021/08/15 08:03:16;;;;;;;12.20;11.20;;;24.60;59.20;;;23.61;52.12;97945.41;4922833;29;20519;-85
2021/08/15 08:05:44;;;;;;;12.87;11.53;;;24.60;58.70;;;23.48;51.91;97942.31;4924291;29;20566;-85
2021/08/15 08:08:13;;;;;;;12.20;11.30;;;24.50;58.40;;;23.33;51.74;97901.25;4903626;29;20543;-87
2021/08/15 08:10:40;;;;;;;12.60;11.50;;;24.60;58.30;;;23.56;51.97;97931.69;4917129;29;20594;-88
2021/08/15 08:13:09;;;;;;;11.60;10.73;;;24.60;58.50;;;23.67;52.27;97937.88;4917449;29;20479;-86
2021/08/15 08:15:39;;;;;;;11.60;10.70;;;24.50;58.60;;;23.81;51.68;97954.41;4902209;29;20496;-85
2021/08/15 08:18:10;;;;;;;10.80;10.00;;;24.60;58.60;;;23.89;51.00;97950.97;4928163;29;20474;-85
2021/08/15 08:20:41;;;;;;;11.50;10.50;;;24.70;58.20;;;24.09;51.10;97949.75;4929661;29;20464;-85
2021/08/15 08:23:12;;;;;;;11.70;10.80;;;24.80;58.20;;;24.37;50.61;97949.75;4908818;29;20455;-84
2021/08/15 08:25:40;;;;;;;11.67;10.77;;;25.00;58.20;;;24.39;50.61;97930.13;4912214;29;20559;-84
2021/08/15 08:28:09;;;;;;;12.27;11.10;;;25.30;58.20;;;24.75;50.62;97943.97;4923390;29;20448;-85
2021/08/15 08:30:36;;;;;;;12.40;11.30;;;25.40;58.30;;;24.73;48.51;97931.59;4925141;29;20485;-86
2021/08/15 08:33:05;;;;;;;12.30;11.10;;;25.60;57.00;;;24.58;48.79;97930.81;4917699;29;20516;-87
2021/08/15 08:35:33;;;;;;;12.30;11.33;;;25.40;56.80;;;24.53;48.93;97936.44;4925849;29;20452;-83
2021/08/15 08:38:02;;;;;;;12.20;11.13;;;25.30;56.80;;;24.59;48.26;97920.59;4929354;29;20463;-84
2021/08/15 08:40:29;;;;;;;11.97;10.77;;;25.40;56.60;;;24.73;49.08;97926.06;4928693;29;20925;-85
2021/08/15 08:42:59;;;;;;;12.07;10.87;;;25.50;56.90;;;24.86;48.13;97925.25;4920515;29;20464;-83
2021/08/15 08:45:28;;;;;;;11.80;10.80;;;25.60;56.70;;;24.47;47.83;97877.75;4928322;29;20495;-83
2021/08/15 08:47:56;;;;;;;11.10;10.10;;;25.60;56.10;;;24.71;48.38;97922.78;4902132;29;20523;-86
2021/08/15 08:50:24;;;;;;;13.20;10.10;;;25.50;56.40;;;24.80;48.24;97900.81;4927638;29;20456;-83
2021/08/15 08:52:53;;;;;;;10.87;9.97;;;25.60;56.10;;;24.70;47.77;97871.44;4920793;29;20468;-83
2021/08/15 08:55:20;;;;;;;10.67;9.70;;;25.70;56.00;;;24.97;46.15;97894.59;4926759;29;20456;-86
2021/08/15 08:57:50;;;;;;;9.83;8.93;;;25.80;55.30;;;25.20;46.23;97895.41;4923288;29;20499;-84
2021/08/15 09:00:25;;;;;;;10.60;9.63;;;25.90;55.20;;;25.00;45.72;97838.72;4913096;29;20460;-86
2021/08/15 09:02:58;;;;;;;11.37;10.10;;;26.10;55.20;;;25.29;45.30;97906.53;4919310;29;20460;-87
2021/08/15 09:05:36;;;;;;;10.93;10.03;;;26.10;54.50;;;25.24;45.43;97882.59;4920235;29;20452;-85
2021/08/15 09:08:07;;;;;;;9.50;8.70;;;26.10;54.90;;;25.37;46.70;97894.69;4910062;29;20482;-85
2021/08/15 09:10:39;;;;;;;10.27;9.47;;;26.30;55.20;;;25.58;45.85;97900.53;4918702;29;20452;-90
2021/08/15 09:13:09;;;;;;;10.23;9.23;;;26.30;54.80;;;25.89;45.05;97896.91;4921269;29;20487;-84
2021/08/15 09:15:38;;;;;;;12.10;9.60;;;26.50;54.60;;;26.12;44.05;97904.31;4911887;29;20514;-85
2021/08/15 09:18:06;;;;;;;10.07;9.27;;;26.60;54.50;;;25.74;46.31;97889.88;4922813;29;20468;-85
2021/08/15 09:20:45;;;;;;;11.40;10.30;;;26.50;55.20;;;25.51;46.29;97896.59;4921911;29;20948;-85
2021/08/15 09:23:23;;;;;;;10.80;9.90;;;26.40;55.00;;;25.69;46.36;97887.22;4922114;29;20463;-85
2021/08/15 09:26:16;;;;;;;10.27;9.23;;;26.50;55.10;;;26.20;44.48;97892.50;4926116;29;20535;-85
2021/08/15 09:28:47;;;;;;;12.30;10.67;;;26.70;54.80;;;26.28;44.85;97868.72;4905979;29;20455;-85
2021/08/15 09:31:29;;;;;;;10.90;9.80;;;26.80;55.00;;;26.47;45.25;97887.81;4910681;29;20479;-83
2021/08/15 09:33:58;;;;;;;9.93;9.03;;;27.10;55.00;;;26.19;45.59;97843.81;4905814;29;20452;-87
2021/08/15 09:36:32;;;;;;;10.37;9.40;;;27.20;55.00;;;26.56;44.61;97860.13;4935197;29;20444;-88
2021/08/15 09:39:04;;;;;;;10.00;9.00;;;27.40;54.80;;;26.90;44.47;97882.63;4925482;29;20543;-84
2021/08/15 09:41:34;;;;;;;11.03;9.93;;;27.60;54.70;;;27.00;44.32;97880.34;4919175;29;20455;-85
2021/08/15 09:44:19;;;;;;;10.70;9.70;;;27.70;54.50;;;27.10;43.73;97875.59;4914041;29;20461;-87
2021/08/15 09:47:11;;;;;;;10.07;9.27;;;27.70;54.20;;;26.56;45.81;97872.00;4918674;29;20469;-85
2021/08/15 09:49:43;;;;;;;12.07;10.43;;;27.30;55.00;;;26.52;45.41;97868.25;4902438;29;20459;-85
2021/08/15 09:52:14;;;;;;;11.90;9.57;;;27.30;55.10;;;26.98;44.69;97873.50;4924941;29;20495;-85
2021/08/15 09:54:55;;;;;;;10.50;9.40;;;27.40;55.00;;;26.52;45.46;97879.34;4890394;29;20451;-85
2021/08/15 09:57:35;;;;;;;10.70;9.80;;;27.40;54.90;;;26.77;44.82;97878.84;4911419;29;20829;-86
2021/08/15 10:00:05;;;;;;;10.23;9.53;;;27.50;54.60;;;26.76;45.33;97861.41;4918425;29;21279;-85
2021/08/15 10:02:34;;;;;;;10.20;9.27;;;27.50;55.00;;;26.76;44.96;97860.59;4919205;29;20871;-85
2021/08/15 10:05:01;;;;;;;11.20;10.20;;;27.50;54.60;;;26.61;44.70;97876.56;4916299;29;20466;-86
2021/08/15 10:07:31;;;;;;;10.10;9.30;;;27.30;54.60;;;26.95;44.19;97860.31;4921319;29;20614;-85
2021/08/15 10:10:02;;;;;;;11.37;9.63;;;27.50;54.40;;;27.05;44.11;97851.63;4920153;29;20972;-86
2021/08/15 10:12:31;;;;;;;10.40;9.43;;;27.60;54.20;;;27.44;42.88;97835.88;4888939;29;20467;-85